This is the latest recevied weather packets stored in our database for station/object NK2J. If no packets are shown the sender has not sent any weather packets the latest 10 day(s).
| Time | Temp. | Humidity | Pressure | Rain* | Wind** | Luminosity | Snow |
|---|---|---|---|---|---|---|---|
| 1777132017 | 23.89° C | 24% | 1011.9 hPa | 0 mm | - | 349 W/m² | - |
| 1777131717 | 23.89° C | 27% | 1011.8 hPa | 0 mm | - | 278 W/m² | - |
| 1777131416 | 23.33° C | 25% | 1011.9 hPa | 0 mm | - | 334 W/m² | - |
| 1777131115 | 23.89° C | 26% | 1012 hPa | 0 mm | - | 273 W/m² | - |
| 1777130811 | 23.33° C | 25% | 1011.9 hPa | 0 mm | - | 315 W/m² | - |
| 1777130507 | 23.33° C | 24% | 1011.9 hPa | 0 mm | - | 278 W/m² | - |
| 1777130203 | 23.33° C | 26% | 1012 hPa | 0 mm | - | 235 W/m² | - |
| 1777129899 | 23.33° C | 25% | 1012.2 hPa | 0 mm | - | 289 W/m² | - |
| 1777129594 | 23.33° C | 26% | 1011.9 hPa | 0 mm | - | 310 W/m² | - |
| 1777129294 | 22.78° C | 25% | 1012 hPa | 0 mm | - | 282 W/m² | - |
| 1777128990 | 22.78° C | 26% | 1012 hPa | 0 mm | - | 239 W/m² | - |
| 1777128686 | 22.22° C | 25% | 1012 hPa | 0 mm | - | 230 W/m² | - |
| 1777128384 | 22.22° C | 27% | 1012.1 hPa | 0 mm | - | 224 W/m² | - |
| 1777128081 | 21.67° C | 26% | 1012.1 hPa | 0 mm | - | 187 W/m² | - |
| 1777127778 | 21.67° C | 26% | 1011.9 hPa | 0 mm | - | 182 W/m² | - |
| 1777127475 | 21.67° C | 28% | 1012 hPa | 0 mm | - | 157 W/m² | - |
| 1777127171 | 21.67° C | 26% | 1012 hPa | 0 mm | - | 200 W/m² | - |
| 1777126867 | 20.56° C | 27% | 1011.9 hPa | 0 mm | - | 167 W/m² | - |
| 1777126564 | 20° C | 27% | 1012 hPa | 0 mm | - | 113 W/m² | - |
| 1777126259 | 20° C | 28% | 1011.8 hPa | 0 mm | - | 91 W/m² | - |
| 1777125955 | 20° C | 28% | 1011.7 hPa | 0 mm | - | 93 W/m² | - |
| 1777125651 | 19.44° C | 28% | 1011.6 hPa | 0 mm | - | 89 W/m² | - |
| 1777125347 | 18.89° C | 28% | 1011.5 hPa | 0 mm | - | 84 W/m² | - |
| 1777125042 | 18.89° C | 28% | 1011.6 hPa | 0 mm | - | 68 W/m² | - |
| 1777124739 | 18.89° C | 29% | 1011.3 hPa | 0 mm | - | 55 W/m² | - |
* Rain latest hour (hover to see other rain measurements)
** Current wind speed in m/s (hover to see current wind gust speed)